createdAt,value
2022-11-09T00:00:11.302Z,0
2022-11-09T00:01:10.627Z,0
2022-11-09T00:02:10.998Z,0
2022-11-09T00:03:09.890Z,0
2022-11-09T00:04:10.475Z,0
2022-11-09T00:05:10.562Z,0
2022-11-09T00:06:10.649Z,0
2022-11-09T00:07:10.628Z,0
2022-11-09T00:08:10.121Z,0
2022-11-09T00:09:11.012Z,0
2022-11-09T00:10:10.412Z,0
2022-11-09T00:11:10.700Z,0
2022-11-09T00:12:10.925Z,0
2022-11-09T00:13:10.433Z,0
2022-11-09T00:14:10.347Z,0
2022-11-09T00:15:11.102Z,0
2022-11-09T00:16:10.238Z,0
2022-11-09T00:17:10.856Z,0
2022-11-09T00:18:29.652Z,0
2022-11-09T00:19:10.851Z,0
2022-11-09T00:20:10.671Z,0
2022-11-09T00:21:11.116Z,0.109
2022-11-09T00:22:10.184Z,0.449
2022-11-09T00:23:10.476Z,0
2022-11-09T00:24:10.881Z,0
2022-11-09T00:25:11.341Z,0
2022-11-09T00:26:10.747Z,0
2022-11-09T00:27:15.169Z,0
2022-11-09T00:28:10.232Z,0
2022-11-09T00:29:10.873Z,0.219
2022-11-09T00:30:11.477Z,0.680
2022-11-09T00:31:10.659Z,0.560
2022-11-09T00:32:10.866Z,0.219
2022-11-09T00:33:10.496Z,0
2022-11-09T00:34:10.507Z,0.449
2022-11-09T00:35:10.863Z,0.109
2022-11-09T00:36:10.196Z,0.109
2022-11-09T00:37:10.203Z,0.340
2022-11-09T00:38:10.424Z,0.109
2022-11-09T00:39:10.348Z,0.449
2022-11-09T00:40:10.792Z,0.219
2022-11-09T00:41:10.811Z,0.680
2022-11-09T00:42:11.043Z,0.219
2022-11-09T00:43:10.387Z,0
2022-11-09T00:44:10.973Z,0.109
2022-11-09T00:45:10.602Z,0
2022-11-09T00:46:10.755Z,0.219
2022-11-09T00:47:10.098Z,0.219
2022-11-09T00:48:10.426Z,0.109
2022-11-09T00:49:10.199Z,0.899
2022-11-09T00:50:10.388Z,0.340
2022-11-09T00:51:10.523Z,0.449
2022-11-09T00:52:10.325Z,0.219
2022-11-09T00:53:10.127Z,0.340
2022-11-09T00:54:10.750Z,0.340
2022-11-09T00:55:10.884Z,0.219
2022-11-09T00:56:10.871Z,0.340
2022-11-09T00:57:10.908Z,0.109
2022-11-09T00:58:11.047Z,0.219
2022-11-09T00:59:10.207Z,0.219
2022-11-09T01:00:10.981Z,0.449
2022-11-09T01:01:11.575Z,0.109
2022-11-09T01:02:10.918Z,0.449
2022-11-09T01:03:11.327Z,0.340
2022-11-09T01:04:10.835Z,0.109
2022-11-09T01:05:11.285Z,0.449
2022-11-09T01:06:10.616Z,0.109
2022-11-09T01:07:10.109Z,0
2022-11-09T01:08:10.358Z,0.310
2022-11-09T01:09:10.650Z,0.219
2022-11-09T01:10:10.939Z,0.370
2022-11-09T01:11:10.937Z,0
2022-11-09T01:12:10.197Z,0.119
2022-11-09T01:13:10.405Z,0.219
2022-11-09T01:14:10.912Z,0.310
2022-11-09T01:15:11.814Z,0.239
2022-11-09T01:16:10.250Z,0.340
2022-11-09T01:17:11.237Z,0.340
2022-11-09T01:18:10.388Z,0.449
2022-11-09T01:19:10.590Z,0.219
2022-11-09T01:20:10.723Z,0.219
2022-11-09T01:21:10.542Z,0.340
2022-11-09T01:22:10.822Z,0.340
2022-11-09T01:23:10.823Z,0.340
2022-11-09T01:24:10.865Z,0.219
2022-11-09T01:25:10.578Z,0.340
2022-11-09T01:26:10.805Z,0
2022-11-09T01:27:10.987Z,0.340
2022-11-09T01:28:10.140Z,0.449
2022-11-09T01:29:10.237Z,0.109
2022-11-09T01:30:11.265Z,0.200
2022-11-09T01:31:11.375Z,0.370
2022-11-09T01:32:10.921Z,0.109
2022-11-09T01:33:10.959Z,0.340
2022-11-09T01:34:10.656Z,0.109
2022-11-09T01:35:11.081Z,0.560
2022-11-09T01:36:10.160Z,0.109
2022-11-09T01:37:10.245Z,0.219
2022-11-09T01:38:10.501Z,0.109
2022-11-09T01:39:10.634Z,0.449
2022-11-09T01:40:10.860Z,0.219
2022-11-09T01:41:10.964Z,0.109
2022-11-09T01:42:10.091Z,0.109
2022-11-09T01:43:10.162Z,0.560
2022-11-09T01:44:10.841Z,0.219
2022-11-09T01:45:11.176Z,0.109
2022-11-09T01:46:10.620Z,0.560
2022-11-09T01:47:10.683Z,0.109
2022-11-09T01:48:10.826Z,0
2022-11-09T01:49:10.784Z,0
2022-11-09T01:50:10.857Z,0
2022-11-09T01:51:10.965Z,0
2022-11-09T01:52:10.298Z,0
2022-11-09T01:53:11.114Z,0
2022-11-09T01:54:11.231Z,0
2022-11-09T01:55:10.371Z,0
2022-11-09T01:56:10.866Z,0
2022-11-09T01:57:11.163Z,0
2022-11-09T01:58:10.862Z,0
2022-11-09T01:59:11.460Z,0
2022-11-09T02:00:11.341Z,0
2022-11-09T02:01:10.832Z,0
2022-11-09T02:02:10.271Z,0
2022-11-09T02:03:10.820Z,0
2022-11-09T02:04:11.181Z,0
2022-11-09T02:05:10.111Z,0
2022-11-09T02:06:10.261Z,0
2022-11-09T02:07:10.361Z,0
2022-11-09T02:08:10.885Z,0
2022-11-09T02:09:10.991Z,0
2022-11-09T02:10:10.889Z,0
2022-11-09T02:11:10.733Z,0
2022-11-09T02:12:11.285Z,13600
2022-11-09T02:13:10.416Z,0
2022-11-09T02:14:10.263Z,0
2022-11-09T02:15:10.759Z,0
2022-11-09T02:16:11.222Z,0
2022-11-09T02:17:10.042Z,0
2022-11-09T02:18:10.476Z,0
2022-11-09T02:19:10.588Z,0
2022-11-09T02:20:10.992Z,0
2022-11-09T02:21:10.891Z,0
2022-11-09T02:22:11.257Z,0
2022-11-09T02:23:10.435Z,0
2022-11-09T02:24:10.740Z,0
2022-11-09T02:25:11.125Z,0
2022-11-09T02:26:10.546Z,0
2022-11-09T02:27:10.627Z,0
2022-11-09T02:28:10.849Z,0
2022-11-09T02:29:10.917Z,0.109
2022-11-09T02:30:11.523Z,0
2022-11-09T02:31:11.026Z,0
2022-11-09T02:32:10.466Z,0
2022-11-09T02:33:10.492Z,0
2022-11-09T02:34:10.301Z,0
2022-11-09T02:35:10.456Z,0
2022-11-09T02:36:10.903Z,0
2022-11-09T02:37:11.126Z,0.119
2022-11-09T02:38:10.608Z,0
2022-11-09T02:39:11.240Z,0
2022-11-09T02:40:10.506Z,0
2022-11-09T02:41:11.117Z,0
2022-11-09T02:42:11.416Z,0
2022-11-09T02:43:11.123Z,0.109
2022-11-09T02:44:10.879Z,0
2022-11-09T02:45:10.618Z,0
2022-11-09T02:46:10.988Z,0.109
2022-11-09T02:47:11.230Z,0
2022-11-09T02:48:10.756Z,0
2022-11-09T02:49:11.271Z,0
2022-11-09T02:50:10.656Z,0
2022-11-09T02:51:10.933Z,0.109
2022-11-09T02:52:11.105Z,0
2022-11-09T02:53:11.201Z,0
2022-11-09T02:54:10.905Z,0
2022-11-09T02:55:11.196Z,0
2022-11-09T02:56:10.321Z,0
2022-11-09T02:57:10.395Z,0
2022-11-09T02:58:10.611Z,0
2022-11-09T02:59:10.786Z,0
2022-11-09T03:00:11.520Z,0
2022-11-09T03:01:10.847Z,0
2022-11-09T03:02:11.073Z,0
2022-11-09T03:03:11.144Z,0
2022-11-09T03:04:10.461Z,0
2022-11-09T03:05:10.881Z,0
2022-11-09T03:06:09.949Z,0
2022-11-09T03:07:10.318Z,0.219
2022-11-09T03:08:10.500Z,0
2022-11-09T03:09:10.406Z,0
2022-11-09T03:10:10.716Z,0.109
2022-11-09T03:11:11.360Z,0
2022-11-09T03:12:10.721Z,0.109
2022-11-09T03:13:11.025Z,0.109
2022-11-09T03:14:10.538Z,0
2022-11-09T03:15:10.804Z,0.109
2022-11-09T03:16:10.889Z,0
2022-11-09T03:17:10.236Z,0
2022-11-09T03:18:10.416Z,0
2022-11-09T03:19:10.721Z,0
2022-11-09T03:20:10.416Z,0
2022-11-09T03:21:10.670Z,0
2022-11-09T03:22:10.915Z,0
2022-11-09T03:23:10.991Z,0
2022-11-09T03:24:10.917Z,0
2022-11-09T03:25:11.080Z,0
2022-11-09T03:26:10.221Z,0
2022-11-09T03:27:10.695Z,0
2022-11-09T03:28:10.817Z,0
2022-11-09T03:29:10.777Z,0
2022-11-09T03:30:11.220Z,0
2022-11-09T03:31:10.215Z,0
2022-11-09T03:32:10.424Z,0
2022-11-09T03:33:10.456Z,0
2022-11-09T03:34:10.223Z,0
2022-11-09T03:35:10.514Z,0
2022-11-09T03:36:11.010Z,0
2022-11-09T03:37:10.257Z,0
2022-11-09T03:38:10.695Z,0
2022-11-09T03:39:10.212Z,0
2022-11-09T03:40:10.157Z,0
2022-11-09T03:41:10.350Z,0
2022-11-09T03:42:10.464Z,0
2022-11-09T03:43:10.689Z,0
2022-11-09T03:44:11.034Z,0
2022-11-09T03:45:10.712Z,0
2022-11-09T03:46:11.149Z,0
2022-11-09T03:47:10.067Z,0
2022-11-09T03:48:10.082Z,0.109
2022-11-09T03:49:11.736Z,0
2022-11-09T03:50:11.324Z,0
2022-11-09T03:51:10.532Z,0.100
2022-11-09T03:52:10.937Z,0
2022-11-09T03:53:11.206Z,0
2022-11-09T03:54:11.058Z,0
2022-11-09T03:55:11.427Z,0
2022-11-09T03:56:10.744Z,0.109
2022-11-09T03:57:10.678Z,0
2022-11-09T03:58:10.995Z,0
2022-11-09T03:59:10.215Z,0
2022-11-09T04:00:11.072Z,0.109
2022-11-09T04:01:10.472Z,0
2022-11-09T04:02:11.237Z,0
2022-11-09T04:03:10.734Z,0
2022-11-09T04:04:10.513Z,0
2022-11-09T04:05:10.923Z,0
2022-11-09T04:06:10.222Z,0
2022-11-09T04:07:10.640Z,0
2022-11-09T04:08:10.241Z,0
2022-11-09T04:09:10.354Z,0.109
2022-11-09T04:10:10.457Z,0.109
2022-11-09T04:11:10.497Z,0
2022-11-09T04:12:10.574Z,0
2022-11-09T04:13:10.329Z,0
2022-11-09T04:14:10.765Z,0.109
2022-11-09T04:15:11.188Z,0
2022-11-09T04:16:10.508Z,0
2022-11-09T04:17:10.609Z,0
2022-11-09T04:18:11.112Z,0
2022-11-09T04:19:10.348Z,0
2022-11-09T04:20:10.702Z,0
2022-11-09T04:21:10.991Z,0.109
2022-11-09T04:22:10.897Z,0
2022-11-09T04:23:10.941Z,0
2022-11-09T04:24:10.550Z,0.109
2022-11-09T04:25:10.542Z,0
2022-11-09T04:26:11.312Z,0
2022-11-09T04:27:10.301Z,0.109
2022-11-09T04:28:10.569Z,0
2022-11-09T04:29:10.688Z,0
2022-11-09T04:30:10.947Z,0
2022-11-09T04:31:10.742Z,0.109
2022-11-09T04:32:10.986Z,0.109
2022-11-09T04:33:10.241Z,0
2022-11-09T04:34:10.607Z,0
2022-11-09T04:35:10.988Z,0
2022-11-09T04:36:10.380Z,0
2022-11-09T04:37:10.605Z,0
2022-11-09T04:38:10.909Z,0.109
2022-11-09T04:39:10.947Z,0
2022-11-09T04:40:11.117Z,0
2022-11-09T04:41:11.211Z,0
2022-11-09T04:42:10.424Z,0
2022-11-09T04:43:10.433Z,0
2022-11-09T04:44:10.529Z,0.109
2022-11-09T04:45:10.626Z,0
2022-11-09T04:46:10.925Z,0
2022-11-09T04:47:11.006Z,0
2022-11-09T04:48:10.399Z,0
2022-11-09T04:49:10.820Z,0
2022-11-09T04:50:11.403Z,0
2022-11-09T04:51:10.681Z,0
2022-11-09T04:52:10.617Z,0
2022-11-09T04:53:10.574Z,0
2022-11-09T04:54:10.913Z,0.109
2022-11-09T04:55:11.136Z,0.109
2022-11-09T04:56:10.456Z,0
2022-11-09T04:57:10.636Z,0
2022-11-09T04:58:10.829Z,0
2022-11-09T04:59:11.136Z,0
2022-11-09T05:00:10.974Z,0
2022-11-09T05:01:10.509Z,0
2022-11-09T05:02:10.543Z,0
2022-11-09T05:03:10.938Z,0
2022-11-09T05:04:10.773Z,0
2022-11-09T05:05:11.395Z,0
2022-11-09T05:06:10.751Z,0
2022-11-09T05:07:10.800Z,0.109
2022-11-09T05:08:10.568Z,0
2022-11-09T05:09:11.204Z,0
2022-11-09T05:10:32.728Z,0
2022-11-09T05:11:10.934Z,0
2022-11-09T05:12:10.343Z,0
2022-11-09T05:13:10.750Z,0
2022-11-09T05:14:10.562Z,0
2022-11-09T05:15:10.879Z,0
2022-11-09T05:16:10.196Z,0
2022-11-09T05:17:11.302Z,0
2022-11-09T05:18:10.675Z,0
2022-11-09T05:19:11.452Z,0
2022-11-09T05:20:11.393Z,0
2022-11-09T05:21:10.345Z,0
2022-11-09T05:22:10.799Z,0
2022-11-09T05:23:11.198Z,0.100
2022-11-09T05:24:10.899Z,0.109
2022-11-09T05:25:11.819Z,0
2022-11-09T05:26:11.232Z,0
2022-11-09T05:27:10.728Z,0
2022-11-09T05:28:10.764Z,0
2022-11-09T05:29:11.443Z,0.109
2022-11-09T05:30:10.952Z,0
2022-11-09T05:31:10.505Z,0
2022-11-09T05:32:11.235Z,0
2022-11-09T05:33:10.604Z,0
2022-11-09T05:34:10.333Z,0.109
2022-11-09T05:35:10.839Z,0
2022-11-09T05:36:11.335Z,0
2022-11-09T05:37:10.619Z,0.219
2022-11-09T05:38:10.966Z,0.109
2022-11-09T05:39:11.588Z,0
2022-11-09T05:40:11.369Z,0.109
2022-11-09T05:41:10.616Z,0.109
2022-11-09T05:42:11.066Z,0
2022-11-09T05:43:10.332Z,0
2022-11-09T05:44:10.952Z,0
2022-11-09T05:45:40.277Z,0.219
2022-11-09T05:46:10.277Z,0
2022-11-09T05:47:10.537Z,0
2022-11-09T05:48:10.896Z,0.109
2022-11-09T05:49:10.872Z,0
2022-11-09T05:50:11.481Z,0
2022-11-09T05:51:10.848Z,0
2022-11-09T05:52:11.211Z,0
2022-11-09T05:53:10.522Z,0
2022-11-09T05:54:10.783Z,0
2022-11-09T05:55:11.410Z,0
2022-11-09T05:56:10.820Z,13600
2022-11-09T05:57:11.073Z,13600
2022-11-09T05:58:10.555Z,13600
2022-11-09T05:59:10.751Z,0
2022-11-09T06:00:11.810Z,13600
2022-11-09T06:01:10.345Z,13600
2022-11-09T06:02:10.806Z,13600
2022-11-09T06:03:10.283Z,13600
2022-11-09T06:04:10.809Z,13600
2022-11-09T06:05:10.850Z,13600
2022-11-09T06:06:11.643Z,0
2022-11-09T06:07:11.851Z,0
2022-11-09T06:08:10.305Z,0
2022-11-09T06:09:10.636Z,0.340
2022-11-09T06:10:11.200Z,0.680
2022-11-09T06:11:11.316Z,1.330
2022-11-09T06:12:10.739Z,1.049
2022-11-09T06:13:11.256Z,1.450
2022-11-09T06:14:11.021Z,2.640
2022-11-09T06:15:11.296Z,3.009
2022-11-09T06:16:10.932Z,4.349
2022-11-09T06:17:10.799Z,5
2022-11-09T06:18:11.202Z,6.690
2022-11-09T06:19:11.116Z,8.170
2022-11-09T06:20:10.553Z,10.18
2022-11-09T06:21:11.026Z,12.80
2022-11-09T06:22:10.202Z,15.30
2022-11-09T06:23:10.428Z,18.20
2022-11-09T06:24:10.718Z,21.70
2022-11-09T06:25:11.407Z,25.70
2022-11-09T06:26:11.159Z,29.79
2022-11-09T06:27:10.986Z,34.20
2022-11-09T06:28:10.895Z,38.79
2022-11-09T06:29:11.354Z,44.29
2022-11-09T06:30:10.951Z,50.20
2022-11-09T06:31:10.123Z,56.29
2022-11-09T06:32:10.941Z,62.90
2022-11-09T06:33:10.610Z,70.09
2022-11-09T06:34:11.103Z,77.19
2022-11-09T06:35:10.232Z,84.80
2022-11-09T06:36:10.700Z,90.90
2022-11-09T06:37:11.176Z,98
2022-11-09T06:38:10.431Z,107.5
2022-11-09T06:39:10.321Z,117
2022-11-09T06:40:10.757Z,126
2022-11-09T06:41:10.591Z,137
2022-11-09T06:42:10.507Z,148
2022-11-09T06:43:11.233Z,163
2022-11-09T06:44:11.055Z,181
2022-11-09T06:45:11.142Z,201
2022-11-09T06:46:10.970Z,220
2022-11-09T06:47:11.295Z,241
2022-11-09T06:48:11.169Z,262
2022-11-09T06:49:11.383Z,287
2022-11-09T06:50:11.016Z,313
2022-11-09T06:51:10.867Z,339
2022-11-09T06:52:10.195Z,366
2022-11-09T06:53:10.979Z,390
2022-11-09T06:54:10.673Z,415
2022-11-09T06:55:11.098Z,441
2022-11-09T06:56:10.990Z,468
2022-11-09T06:57:11.247Z,494
2022-11-09T06:58:10.476Z,518
2022-11-09T06:59:11.034Z,541
2022-11-09T07:00:10.901Z,569
2022-11-09T07:01:10.809Z,598
2022-11-09T07:02:11.507Z,623
2022-11-09T07:03:10.886Z,649
2022-11-09T07:04:10.777Z,678
2022-11-09T07:05:18.466Z,710
2022-11-09T07:06:10.825Z,740
2022-11-09T07:07:27.948Z,780
2022-11-09T07:08:10.565Z,820
2022-11-09T07:09:10.530Z,850
2022-11-09T07:10:10.978Z,890
2022-11-09T07:11:11.278Z,930
2022-11-09T07:12:10.629Z,970
2022-11-09T07:13:10.656Z,1020
2022-11-09T07:14:10.879Z,1060
2022-11-09T07:15:11.194Z,1110
2022-11-09T07:16:10.475Z,1140
2022-11-09T07:17:10.973Z,1182
2022-11-09T07:18:10.502Z,1211
2022-11-09T07:19:11.079Z,1242
2022-11-09T07:20:10.662Z,1270
2022-11-09T07:21:14.222Z,1310
2022-11-09T07:22:10.760Z,1350
2022-11-09T07:23:11.163Z,1380
2022-11-09T07:24:11.096Z,1408
2022-11-09T07:25:10.719Z,1433
2022-11-09T07:26:11.264Z,1460
2022-11-09T07:27:10.570Z,1490
2022-11-09T07:28:11.018Z,1530
2022-11-09T07:29:11.285Z,1600
2022-11-09T07:30:10.872Z,1700
2022-11-09T07:31:10.478Z,1800
2022-11-09T07:32:10.948Z,1900
2022-11-09T07:33:11.181Z,2000
2022-11-09T07:34:10.532Z,2090
2022-11-09T07:35:11.144Z,2130
2022-11-09T07:36:10.701Z,2190
2022-11-09T07:37:10.627Z,2252
2022-11-09T07:38:11.094Z,2258.
2022-11-09T07:39:11.539Z,2268
2022-11-09T07:40:11.101Z,2310
2022-11-09T07:41:11.169Z,2400
2022-11-09T07:42:10.396Z,2540
2022-11-09T07:43:10.951Z,2605
2022-11-09T07:44:10.690Z,2600
2022-11-09T07:45:11.038Z,2800
2022-11-09T07:46:10.553Z,2700
2022-11-09T07:47:14.501Z,2681
2022-11-09T07:48:11.221Z,2000
2022-11-09T07:49:10.343Z,3000
2022-11-09T07:50:10.954Z,0
2022-11-09T07:51:11.214Z,0
2022-11-09T07:52:10.664Z,3000
2022-11-09T07:53:10.748Z,3600
2022-11-09T07:54:11.029Z,3600
2022-11-09T07:56:10.797Z,0
2022-11-09T07:57:11.040Z,5000
2022-11-09T07:58:10.598Z,0
2022-11-09T07:59:10.930Z,0
2022-11-09T08:00:10.796Z,0
2022-11-09T08:01:10.861Z,5000
2022-11-09T08:02:10.999Z,0
2022-11-09T08:03:10.512Z,0
2022-11-09T08:04:10.963Z,6000
2022-11-09T08:05:10.149Z,5000
2022-11-09T08:06:14.343Z,0
2022-11-09T08:07:10.468Z,6000
2022-11-09T08:08:10.822Z,6000
2022-11-09T08:09:11.197Z,6000
2022-11-09T08:10:10.629Z,5000
2022-11-09T08:11:10.897Z,6000
2022-11-09T08:12:11.379Z,0
2022-11-09T08:13:10.525Z,0
2022-11-09T08:14:11.106Z,5000
2022-11-09T08:15:10.555Z,0
2022-11-09T08:16:10.813Z,0
2022-11-09T08:17:10.979Z,0
2022-11-09T08:18:10.720Z,0
2022-11-09T08:19:10.881Z,5000
2022-11-09T08:20:11.252Z,4000
2022-11-09T08:21:10.279Z,5000
2022-11-09T08:22:10.783Z,0
2022-11-09T08:23:10.938Z,0
2022-11-09T08:24:10.477Z,5000
2022-11-09T08:25:11.037Z,0
2022-11-09T08:26:12.565Z,0
2022-11-09T08:27:10.470Z,0
2022-11-09T08:28:14.477Z,0
2022-11-09T08:29:10.463Z,0
2022-11-09T08:30:11.512Z,8000
2022-11-09T08:31:10.926Z,7000
2022-11-09T08:32:10.366Z,7000
2022-11-09T08:33:10.732Z,10000
2022-11-09T08:34:11.092Z,0
2022-11-09T08:35:10.359Z,10000
2022-11-09T08:36:10.803Z,10000
2022-11-09T08:37:10.744Z,10000
2022-11-09T08:38:10.947Z,0
2022-11-09T08:39:10.946Z,10000
2022-11-09T08:40:10.517Z,10000
2022-11-09T08:41:13.631Z,0
2022-11-09T08:42:10.446Z,0
2022-11-09T08:43:10.837Z,0
2022-11-09T08:44:11.079Z,0
2022-11-09T08:45:11.381Z,10000
2022-11-09T08:46:10.697Z,10000
2022-11-09T08:47:10.728Z,0
2022-11-09T08:48:10.533Z,0
2022-11-09T08:49:10.703Z,10000
2022-11-09T08:50:11.007Z,10000
2022-11-09T08:51:10.627Z,0
2022-11-09T08:52:10.927Z,0
2022-11-09T08:53:11.176Z,0
2022-11-09T08:54:10.516Z,0
2022-11-09T08:55:10.664Z,0
2022-11-09T08:56:11.087Z,0
2022-11-09T08:57:10.944Z,20000
2022-11-09T08:58:10.642Z,0
2022-11-09T09:00:11.253Z,0
2022-11-09T09:01:16.431Z,0
2022-11-09T09:02:10.408Z,0
2022-11-09T09:03:10.938Z,0
2022-11-09T09:04:10.281Z,0
2022-11-09T09:05:10.293Z,0
2022-11-09T09:06:10.738Z,0
2022-11-09T09:07:11.445Z,0
2022-11-09T09:08:10.866Z,0
2022-11-09T09:09:11.141Z,10000
2022-11-09T09:10:10.307Z,10000
2022-11-09T09:11:11.049Z,10000
2022-11-09T09:12:10.399Z,0
2022-11-09T09:13:10.665Z,20000
2022-11-09T09:14:11.086Z,20000
2022-11-09T09:15:11.339Z,20000
2022-11-09T09:16:10.912Z,0
2022-11-09T09:17:10.796Z,10000
2022-11-09T09:18:10.787Z,0
2022-11-09T09:19:10.577Z,10000
2022-11-09T09:20:11.201Z,0
2022-11-09T09:21:10.327Z,20000
2022-11-09T09:22:10.557Z,0
2022-11-09T09:23:10.937Z,10000
2022-11-09T09:24:10.642Z,0
2022-11-09T09:25:10.978Z,0
2022-11-09T09:26:10.184Z,30000
2022-11-09T09:27:10.940Z,0
2022-11-09T09:28:10.500Z,10000
2022-11-09T09:29:11.294Z,0
2022-11-09T09:30:10.851Z,20000
2022-11-09T09:31:13.133Z,0
2022-11-09T09:32:11.108Z,10000
2022-11-09T09:33:10.602Z,0
2022-11-09T09:34:11.532Z,0
2022-11-09T09:35:10.471Z,10000
2022-11-09T09:36:10.903Z,0
2022-11-09T09:37:11.522Z,10000
2022-11-09T09:38:11.168Z,10000
2022-11-09T09:39:10.821Z,0
2022-11-09T09:40:11.425Z,0
2022-11-09T09:41:10.393Z,10000
2022-11-09T09:42:10.881Z,10000
2022-11-09T09:43:11.419Z,0
2022-11-09T09:44:10.830Z,10000
2022-11-09T09:45:11.372Z,0
2022-11-09T09:46:10.668Z,10000
2022-11-09T09:47:10.887Z,0
2022-11-09T09:48:10.514Z,10000
2022-11-09T09:49:10.596Z,0
2022-11-09T09:50:10.946Z,0
2022-11-09T09:51:10.191Z,0
2022-11-09T09:52:10.360Z,0
2022-11-09T09:53:23.639Z,10000
2022-11-09T09:54:10.751Z,10000
2022-11-09T09:55:11.043Z,9000
2022-11-09T09:56:10.562Z,10000
2022-11-09T09:57:10.881Z,10000
2022-11-09T09:58:10.747Z,0
2022-11-09T09:59:10.777Z,10000
2022-11-09T10:00:11.874Z,0
2022-11-09T10:01:10.572Z,16000
2022-11-09T10:02:10.598Z,0
2022-11-09T10:03:10.954Z,10000
2022-11-09T10:04:10.209Z,20000
2022-11-09T10:05:10.604Z,20000
2022-11-09T10:06:11.092Z,20000
2022-11-09T10:07:11.220Z,20000
2022-11-09T10:08:10.674Z,20000
2022-11-09T10:09:10.754Z,0
2022-11-09T10:10:11.204Z,0
2022-11-09T10:11:10.485Z,0
2022-11-09T10:12:10.458Z,0
2022-11-09T10:13:10.853Z,0
2022-11-09T10:14:10.222Z,0
2022-11-09T10:15:10.834Z,0
2022-11-09T10:16:10.304Z,0
2022-11-09T10:17:10.663Z,0
2022-11-09T10:18:10.856Z,0
2022-11-09T10:19:11.140Z,0
2022-11-09T10:20:10.452Z,0
2022-11-09T10:21:10.721Z,0
2022-11-09T10:22:10.906Z,0
2022-11-09T10:23:10.832Z,0
2022-11-09T10:24:11.362Z,0
2022-11-09T10:25:50.412Z,10000
2022-11-09T10:26:15.724Z,10000
2022-11-09T10:27:10.669Z,10000
2022-11-09T10:28:17.691Z,0
2022-11-09T10:29:16.866Z,10000
2022-11-09T10:30:10.457Z,0
2022-11-09T10:31:10.755Z,0
2022-11-09T10:32:11.476Z,0
2022-11-09T10:33:10.617Z,0
2022-11-09T10:34:10.736Z,0
2022-11-09T10:35:11.313Z,0
2022-11-09T10:36:10.586Z,10000
2022-11-09T10:37:11.027Z,0
2022-11-09T10:38:11.133Z,0
2022-11-09T10:39:11.145Z,0
2022-11-09T10:40:10.559Z,0
2022-11-09T10:41:11.058Z,0
2022-11-09T10:42:10.780Z,0
2022-11-09T10:43:11.086Z,10000
2022-11-09T10:44:16.170Z,0
2022-11-09T10:45:10.802Z,9000
2022-11-09T10:46:10.935Z,10000
2022-11-09T10:47:11.269Z,10000
2022-11-09T10:48:10.495Z,10000
2022-11-09T10:49:10.723Z,11000
2022-11-09T10:50:11.275Z,10000
2022-11-09T10:51:11.146Z,10000
2022-11-09T10:52:10.689Z,10000
2022-11-09T10:53:11.191Z,9000
2022-11-09T10:54:10.677Z,9000
2022-11-09T10:55:11.480Z,8800
2022-11-09T10:56:11.454Z,8000
2022-11-09T10:57:11.200Z,8000
2022-11-09T10:58:11.041Z,7900
2022-11-09T10:59:11.049Z,7800
2022-11-09T11:00:11.266Z,7900
2022-11-09T11:01:11.027Z,7860
2022-11-09T11:02:11.040Z,7900
2022-11-09T11:03:10.997Z,7840
2022-11-09T11:04:10.771Z,7700
2022-11-09T11:05:11.599Z,7852
2022-11-09T11:06:10.873Z,7900
2022-11-09T11:07:10.542Z,7970
2022-11-09T11:08:10.733Z,8010
2022-11-09T11:09:11.589Z,7950
2022-11-09T11:10:11.297Z,7800
2022-11-09T11:11:31.753Z,7840
2022-11-09T11:12:10.844Z,7900
2022-11-09T11:13:10.608Z,8000
2022-11-09T11:14:10.376Z,8200
2022-11-09T11:15:11.574Z,8300
2022-11-09T11:16:11.662Z,8400
2022-11-09T11:17:11.543Z,8500
2022-11-09T11:18:11.419Z,8400
2022-11-09T11:19:10.990Z,8400
2022-11-09T11:20:10.937Z,8580
2022-11-09T11:21:14.880Z,8620
2022-11-09T11:22:10.748Z,8660
2022-11-09T11:23:11.512Z,8709
2022-11-09T11:24:10.624Z,8700
2022-11-09T11:25:11.165Z,8800
2022-11-09T11:26:10.768Z,8900
2022-11-09T11:27:11.405Z,9020
2022-11-09T11:28:10.748Z,9060
2022-11-09T11:29:11.463Z,9100
2022-11-09T11:30:11.193Z,9180
2022-11-09T11:31:10.720Z,9240
2022-11-09T11:32:10.555Z,9300
2022-11-09T11:33:11.159Z,9440
2022-11-09T11:34:11.123Z,9440
2022-11-09T11:35:11.637Z,9500
2022-11-09T11:36:10.993Z,9590
2022-11-09T11:37:11.052Z,9630
2022-11-09T11:38:10.433Z,9700
2022-11-09T11:39:11.197Z,9700
2022-11-09T11:40:10.804Z,9650
2022-11-09T11:41:10.948Z,9630
2022-11-09T11:42:10.487Z,9550
2022-11-09T11:43:11.035Z,9540
2022-11-09T11:44:11.040Z,9590
2022-11-09T11:45:39.141Z,9000
2022-11-09T11:46:11.003Z,9000
2022-11-09T11:47:10.663Z,9010
2022-11-09T11:48:10.928Z,8930
2022-11-09T11:49:11.142Z,8900
2022-11-09T11:50:11.014Z,8700
2022-11-09T11:51:15.548Z,8660
2022-11-09T11:52:10.918Z,8700
2022-11-09T11:53:11.311Z,8860
2022-11-09T11:54:11.844Z,8890
2022-11-09T11:55:18.434Z,8840
2022-11-09T11:56:10.877Z,8800
2022-11-09T11:57:11.320Z,8600
2022-11-09T11:58:10.753Z,8400
2022-11-09T11:59:11.033Z,8000
2022-11-09T12:00:11.322Z,8190
2022-11-09T12:01:11.067Z,8100
2022-11-09T12:02:10.497Z,8200
2022-11-09T12:03:11.561Z,8270
2022-11-09T12:04:10.679Z,8000
2022-11-09T12:05:11.346Z,7700
2022-11-09T12:06:11.061Z,7700
2022-11-09T12:07:10.915Z,7500
2022-11-09T12:08:10.699Z,7700
2022-11-09T12:09:11.306Z,7920
2022-11-09T12:10:11.025Z,8000
2022-11-09T12:11:10.668Z,8100
2022-11-09T12:12:11.019Z,7700
2022-11-09T12:13:11.097Z,7800
2022-11-09T12:14:10.705Z,7850
2022-11-09T12:15:10.986Z,7800
2022-11-09T12:16:10.453Z,7750
2022-11-09T12:17:11.183Z,7745
2022-11-09T12:18:10.779Z,7800
2022-11-09T12:19:11.402Z,8000
2022-11-09T12:20:10.834Z,8170
2022-11-09T12:21:10.398Z,8000
2022-11-09T12:22:10.795Z,8010
2022-11-09T12:23:10.945Z,7970
2022-11-09T12:24:10.976Z,7990
2022-11-09T12:25:11.716Z,7910
2022-11-09T12:26:14.537Z,7880
2022-11-09T12:27:31.082Z,7900
2022-11-09T12:28:10.975Z,8000
2022-11-09T12:29:10.721Z,8100
2022-11-09T12:30:10.563Z,8340
2022-11-09T12:31:33.124Z,8400
2022-11-09T12:32:10.094Z,8200
2022-11-09T12:33:10.578Z,8260
2022-11-09T12:34:10.868Z,8280
2022-11-09T12:35:11.449Z,8246
2022-11-09T12:36:10.929Z,8100
2022-11-09T12:37:10.435Z,8020
2022-11-09T12:38:11.103Z,7900
2022-11-09T12:39:10.700Z,7840
2022-11-09T12:40:10.673Z,7700
2022-11-09T12:41:11.210Z,7686
2022-11-09T12:42:10.486Z,7660
2022-11-09T12:43:10.772Z,7600
2022-11-09T12:44:15.891Z,7400
2022-11-09T12:45:10.745Z,7373
2022-11-09T12:46:11.201Z,7350
2022-11-09T12:47:10.675Z,7000
2022-11-09T12:48:11.033Z,7100
2022-11-09T12:49:10.424Z,7400
2022-11-09T12:50:11.076Z,7500
2022-11-09T12:51:10.725Z,7700
2022-11-09T12:52:11.315Z,8000
2022-11-09T12:53:10.869Z,8000
2022-11-09T12:54:10.704Z,8100
2022-11-09T12:55:11.326Z,8000
2022-11-09T12:56:10.958Z,7900
2022-11-09T12:57:10.565Z,8120
2022-11-09T12:58:11.040Z,8300
2022-11-09T12:59:10.233Z,8500
2022-11-09T13:00:11.417Z,8000
2022-11-09T13:01:10.263Z,7000
2022-11-09T13:02:11.212Z,7000
2022-11-09T13:03:11.206Z,6000
2022-11-09T13:04:10.882Z,6500
2022-11-09T13:05:10.685Z,6500
2022-11-09T13:06:10.380Z,7000
2022-11-09T13:07:10.499Z,7500
2022-11-09T13:08:10.318Z,7470
2022-11-09T13:09:10.883Z,7000
2022-11-09T13:10:10.952Z,7230
2022-11-09T13:11:10.364Z,7000
2022-11-09T13:12:15.882Z,6950
2022-11-09T13:13:10.312Z,7000
2022-11-09T13:14:10.563Z,6900
2022-11-09T13:15:11.405Z,6700
2022-11-09T13:16:10.772Z,6400
2022-11-09T13:17:11.484Z,6000
2022-11-09T13:18:11.092Z,6000
2022-11-09T13:19:10.416Z,5930
2022-11-09T13:20:11.411Z,5800
2022-11-09T13:21:11.091Z,5890
2022-11-09T13:22:10.696Z,5810
2022-11-09T13:23:11.081Z,5600
2022-11-09T13:24:14.160Z,5000
2022-11-09T13:25:10.952Z,5000
2022-11-09T13:26:10.894Z,4900
2022-11-09T13:27:10.380Z,4800
2022-11-09T13:28:10.677Z,4600
2022-11-09T13:29:11.150Z,5000
2022-11-09T13:30:10.897Z,5000
2022-11-09T13:31:10.586Z,6000
2022-11-09T13:32:11.061Z,5000
2022-11-09T13:33:10.879Z,5400
2022-11-09T13:34:10.451Z,5000
2022-11-09T13:35:11.330Z,4000
2022-11-09T13:36:10.954Z,4300
2022-11-09T13:37:10.818Z,4000
2022-11-09T13:38:10.959Z,3850
2022-11-09T13:39:10.595Z,3800
2022-11-09T13:40:10.586Z,4000
2022-11-09T13:41:10.702Z,4220
2022-11-09T13:42:11.098Z,3000
2022-11-09T13:43:10.384Z,3000
2022-11-09T13:44:09.955Z,3020
2022-11-09T13:45:10.611Z,3100
2022-11-09T13:46:11.327Z,3000
2022-11-09T13:47:10.730Z,3550
2022-11-09T13:48:11.157Z,3000
2022-11-09T13:49:10.759Z,2800